Saint Charles, MO

2:29 AM CDT on August 29, 2015 (GMT -0500)
Austin Ridge | | Change Station
CLOSE
Current Station
Personal Weather Station
Location: Saint Charles, MO
Elevation: 580 ft
Nearby Weather Stations

Elev 580 ft 38.70 °N, 90.62 °W | Updated 3 minutes ago

Overcast
Overcast
69.8 °F
Feels Like 69.8 °F
N
0.0
Wind Variable Wind from SSE
Gusts 0.0 mph

Today
High -- | Low -- °F
--% Chance of Precip.
Yesterday
High -- | Low -- °F
Precip. -- in
6:28 AM 7:37 PM
Full, 100% visible
Pressure 30.00 in
Visibility 10.0 miles
Clouds Few 12000 ft
Dew Point 64 °F
Humidity 83%
Rainfall 0.00 in
Snow Depth Not available.
UV 0 out of 12
Pollen 10.40 out of 12
Air Quality Not available.
Flu Activity Not available.
METAR KSUS 290654Z AUTO 00000KT 10SM FEW120 21/18 A3002 RMK AO2 SLP157 T02060183
Pressure 30.00 in
Visibility 10.0 miles
Clouds Few 12000 ft
Dew Point 64 °F
Humidity 83%
Rainfall 0.00 in
Snow Depth Not available.
UV 0 out of 12
Pollen 10.40 out of 12
Air Quality Not available.
Flu Activity Not available.
METAR KSUS 290654Z AUTO 00000KT 10SM FEW120 21/18 A3002 RMK AO2 SLP157 T02060183

10-Day Weather Forecast

×

Almanac

Astronomy

Aug. 29, 2015 Rise Set
Actual Time
Civil Twilight
Nautical Twilight
Astronomical Twilight
Moon
Length of Visible Light
Length of Day
Tomorrow will be .
, % of the Moon is Illuminated

Today's Extremes

State Highs State Lows

Community

WunderPhotos

Upload Photos

1,850,633 photos uploaded!

WunderBlogs® & News

Nearby

Air Quality

  Air Quality AQ Index Pollutant
Not available.

Snow Depth

Station Depth Elevation

Earthquake Activity

City Distance Mag. Time & Date
Minimum magnitude displayed is 2.5.

Coastal Water Temperatures

Place Temperature

Stations

Nearby Weather Stations

Station Location Temp. Windchill Dew Point Humidity Wind Precip. Elev Updated Type